Southwest Florida International Airport
KRSW : now visible

Airfield :











YOU CAN JOIN US ON...

 
LOGIN :

Register | Disclaimer

   EN    FR    IT 

 









Legend :    VFR   Marginal VFR   IFR   Intensive IFR   Very Intensive IFR
Visi :
Ceiling :
>= 8 km
>= 3000ft
5 to 8 km
1000 to 3000 ft
1500m to 5 km
500 to 1000 ft
800 to 1500m
200 to 500 ft
< 800m
< 200 ft
Symbols :   Thunderstorms  Fog  Heavy snow  Heavy precipitations  Wind > 20 kt






- Airport Elevation : 30 ft
- IATA code : RSW


KRSW - Southwest Florida International

CURRENT METAR :
  • 220053Z 08007KT 10SM BKN100 24/21 A2998 RMK AO2 SLP148 T02440206

EXPIRED METARs :
  • 212353Z 07007KT 10SM SCT085 25/21 A2996 RMK AO2 SLP143 T02500206 10283 20250 53009
  • 212253Z 08010KT 10SM CLR 26/21 A2994 RMK AO2 SLP137 T02610211

TAF KRSW
Valid from the 22 at 00:00 until the 23 at 00:00 UTC


212334Z 2200/2224 09010KT P6SM FEW030 BKN100 OVC200
FM220800 07006KT P6SM FEW020 BKN200
FM221600 10011G17KT P6SM SCT030 BKN100 OVC200
FM221800 10012G18KT P6SM VCTS FEW025CB OVC100
KZMA FIR / North America



MET'MAP, your aeronautical weather chart ! - Copyright ORBIFLY December 2007 - Disclaimer

ORBIFLY MET'MAP TEAM :

Programming & Development : Alexandra Zaïnal
Concept & original design : Baudouin d'Aumeries
Assistance for programming : Marc-Olivier Méhu
Technical & hardware support : Manuel Goepfert

Contact : metmap@orbifly.com




SOURCES & CREDITS :

   NOAA       Earth
Advisory